sensor_id;sensor_type;location;lat;lon;timestamp;P1;durP1;ratioP1;P2;durP2;ratioP2
6519;SDS011;3293;51.690;5.982;2022-08-07T00:01:16;6.80;;;3.30;;
6519;SDS011;3293;51.690;5.982;2022-08-07T00:06:16;3.13;;;2.83;;
6519;SDS011;3293;51.690;5.982;2022-08-07T00:11:16;3.83;;;2.93;;
6519;SDS011;3293;51.690;5.982;2022-08-07T00:16:16;4.17;;;3.20;;
6519;SDS011;3293;51.690;5.982;2022-08-07T00:21:16;3.53;;;3.03;;
6519;SDS011;3293;51.690;5.982;2022-08-07T00:26:16;5.67;;;3.50;;
6519;SDS011;3293;51.690;5.982;2022-08-07T00:31:16;3.63;;;3.33;;
6519;SDS011;3293;51.690;5.982;2022-08-07T00:36:16;5.70;;;3.80;;
6519;SDS011;3293;51.690;5.982;2022-08-07T00:41:23;4.37;;;3.93;;
6519;SDS011;3293;51.690;5.982;2022-08-07T00:46:33;4.63;;;3.90;;
6519;SDS011;3293;51.690;5.982;2022-08-07T00:51:33;4.30;;;3.60;;
6519;SDS011;3293;51.690;5.982;2022-08-07T00:56:33;6.87;;;3.87;;
6519;SDS011;3293;51.690;5.982;2022-08-07T01:01:34;4.10;;;3.70;;
6519;SDS011;3293;51.690;5.982;2022-08-07T01:06:34;4.03;;;3.47;;
6519;SDS011;3293;51.690;5.982;2022-08-07T01:11:34;4.53;;;3.40;;
6519;SDS011;3293;51.690;5.982;2022-08-07T01:16:34;4.67;;;3.37;;
6519;SDS011;3293;51.690;5.982;2022-08-07T01:21:35;3.70;;;3.40;;
6519;SDS011;3293;51.690;5.982;2022-08-07T01:26:35;3.83;;;3.53;;
6519;SDS011;3293;51.690;5.982;2022-08-07T01:31:35;4.37;;;3.70;;
6519;SDS011;3293;51.690;5.982;2022-08-07T01:36:36;4.23;;;3.70;;
6519;SDS011;3293;51.690;5.982;2022-08-07T01:41:37;4.90;;;4.20;;
6519;SDS011;3293;51.690;5.982;2022-08-07T01:46:40;5.70;;;3.90;;
6519;SDS011;3293;51.690;5.982;2022-08-07T01:51:41;4.20;;;3.70;;
6519;SDS011;3293;51.690;5.982;2022-08-07T01:56:52;4.63;;;4.10;;
6519;SDS011;3293;51.690;5.982;2022-08-07T02:02:00;6.97;;;4.47;;
6519;SDS011;3293;51.690;5.982;2022-08-07T02:07:04;3.83;;;3.27;;
6519;SDS011;3293;51.690;5.982;2022-08-07T02:12:08;4.83;;;4.37;;
6519;SDS011;3293;51.690;5.982;2022-08-07T02:17:18;5.40;;;4.90;;
6519;SDS011;3293;51.690;5.982;2022-08-07T02:22:18;8.60;;;4.70;;
6519;SDS011;3293;51.690;5.982;2022-08-07T02:27:20;6.00;;;4.73;;
6519;SDS011;3293;51.690;5.982;2022-08-07T02:32:22;5.70;;;5.00;;
6519;SDS011;3293;51.690;5.982;2022-08-07T02:37:23;5.33;;;4.80;;
6519;SDS011;3293;51.690;5.982;2022-08-07T02:42:24;5.20;;;4.70;;
6519;SDS011;3293;51.690;5.982;2022-08-07T02:47:24;6.10;;;5.50;;
6519;SDS011;3293;51.690;5.982;2022-08-07T02:52:26;7.33;;;6.17;;
6519;SDS011;3293;51.690;5.982;2022-08-07T02:57:35;8.10;;;6.13;;
6519;SDS011;3293;51.690;5.982;2022-08-07T03:02:36;7.90;;;6.53;;
6519;SDS011;3293;51.690;5.982;2022-08-07T03:07:39;10.77;;;7.20;;
6519;SDS011;3293;51.690;5.982;2022-08-07T03:12:40;11.40;;;6.80;;
6519;SDS011;3293;51.690;5.982;2022-08-07T03:17:42;9.23;;;7.00;;
6519;SDS011;3293;51.690;5.982;2022-08-07T03:22:42;6.97;;;5.53;;
6519;SDS011;3293;51.690;5.982;2022-08-07T03:27:45;8.13;;;5.30;;
6519;SDS011;3293;51.690;5.982;2022-08-07T03:32:47;7.20;;;5.57;;
6519;SDS011;3293;51.690;5.982;2022-08-07T03:37:49;6.13;;;5.53;;
6519;SDS011;3293;51.690;5.982;2022-08-07T03:42:54;6.60;;;5.57;;
6519;SDS011;3293;51.690;5.982;2022-08-07T03:47:55;7.50;;;6.10;;
6519;SDS011;3293;51.690;5.982;2022-08-07T03:52:57;6.60;;;5.77;;
6519;SDS011;3293;51.690;5.982;2022-08-07T03:57:58;8.47;;;6.73;;
6519;SDS011;3293;51.690;5.982;2022-08-07T04:02:59;8.13;;;6.70;;
6519;SDS011;3293;51.690;5.982;2022-08-07T04:07:59;7.93;;;7.07;;
6519;SDS011;3293;51.690;5.982;2022-08-07T04:13:01;8.13;;;6.97;;
6519;SDS011;3293;51.690;5.982;2022-08-07T04:18:02;10.30;;;7.03;;
6519;SDS011;3293;51.690;5.982;2022-08-07T04:23:02;9.80;;;7.77;;
6519;SDS011;3293;51.690;5.982;2022-08-07T04:28:04;11.83;;;8.87;;
6519;SDS011;3293;51.690;5.982;2022-08-07T04:33:06;11.03;;;8.07;;
6519;SDS011;3293;51.690;5.982;2022-08-07T04:38:08;9.83;;;8.07;;
6519;SDS011;3293;51.690;5.982;2022-08-07T04:43:09;14.63;;;8.80;;
6519;SDS011;3293;51.690;5.982;2022-08-07T04:48:11;14.20;;;9.03;;
6519;SDS011;3293;51.690;5.982;2022-08-07T04:53:33;10.07;;;8.87;;
6519;SDS011;3293;51.690;5.982;2022-08-07T05:04:23;11.13;;;8.90;;
6519;SDS011;3293;51.690;5.982;2022-08-07T05:09:28;10.20;;;7.73;;
6519;SDS011;3293;51.690;5.982;2022-08-07T05:14:42;9.33;;;7.13;;
6519;SDS011;3293;51.690;5.982;2022-08-07T05:19:46;7.88;;;6.72;;
6519;SDS011;3293;51.690;5.982;2022-08-07T05:24:48;8.00;;;6.90;;
6519;SDS011;3293;51.690;5.982;2022-08-07T05:29:53;7.88;;;6.55;;
6519;SDS011;3293;51.690;5.982;2022-08-07T05:34:55;7.43;;;6.65;;
6519;SDS011;3293;51.690;5.982;2022-08-07T05:39:56;8.02;;;6.38;;
6519;SDS011;3293;51.690;5.982;2022-08-07T05:44:57;9.98;;;7.00;;
6519;SDS011;3293;51.690;5.982;2022-08-07T05:49:57;9.05;;;6.43;;
6519;SDS011;3293;51.690;5.982;2022-08-07T05:55:00;8.13;;;6.60;;
6519;SDS011;3293;51.690;5.982;2022-08-07T06:00:00;7.35;;;6.50;;
6519;SDS011;3293;51.690;5.982;2022-08-07T06:05:06;9.00;;;7.10;;
6519;SDS011;3293;51.690;5.982;2022-08-07T06:10:11;7.28;;;6.57;;
6519;SDS011;3293;51.690;5.982;2022-08-07T06:15:13;8.35;;;6.25;;
6519;SDS011;3293;51.690;5.982;2022-08-07T06:20:13;7.93;;;7.15;;
6519;SDS011;3293;51.690;5.982;2022-08-07T06:25:14;7.40;;;6.60;;
6519;SDS011;3293;51.690;5.982;2022-08-07T06:30:14;7.05;;;6.35;;
6519;SDS011;3293;51.690;5.982;2022-08-07T06:35:14;7.00;;;6.30;;
6519;SDS011;3293;51.690;5.982;2022-08-07T06:40:13;8.40;;;7.32;;
6519;SDS011;3293;51.690;5.982;2022-08-07T06:45:14;8.25;;;7.22;;
6519;SDS011;3293;51.690;5.982;2022-08-07T06:50:16;7.65;;;6.93;;
6519;SDS011;3293;51.690;5.982;2022-08-07T06:55:23;7.82;;;7.03;;
6519;SDS011;3293;51.690;5.982;2022-08-07T07:00:25;9.30;;;7.85;;
6519;SDS011;3293;51.690;5.982;2022-08-07T07:05:29;7.80;;;6.88;;
6519;SDS011;3293;51.690;5.982;2022-08-07T07:10:30;9.05;;;7.85;;
6519;SDS011;3293;51.690;5.982;2022-08-07T07:15:33;7.80;;;6.53;;
6519;SDS011;3293;51.690;5.982;2022-08-07T07:20:38;7.20;;;6.50;;
6519;SDS011;3293;51.690;5.982;2022-08-07T07:25:44;7.75;;;5.68;;
6519;SDS011;3293;51.690;5.982;2022-08-07T07:30:47;6.97;;;6.28;;
6519;SDS011;3293;51.690;5.982;2022-08-07T07:35:54;8.82;;;6.10;;
6519;SDS011;3293;51.690;5.982;2022-08-07T07:40:56;8.27;;;6.38;;
6519;SDS011;3293;51.690;5.982;2022-08-07T07:46:00;6.53;;;5.03;;
6519;SDS011;3293;51.690;5.982;2022-08-07T07:51:03;6.32;;;4.82;;
6519;SDS011;3293;51.690;5.982;2022-08-07T07:56:03;4.60;;;4.18;;
6519;SDS011;3293;51.690;5.982;2022-08-07T08:01:07;5.50;;;4.07;;
6519;SDS011;3293;51.690;5.982;2022-08-07T08:06:08;4.30;;;3.83;;
6519;SDS011;3293;51.690;5.982;2022-08-07T08:11:09;4.63;;;4.15;;
6519;SDS011;3293;51.690;5.982;2022-08-07T08:16:11;5.78;;;3.65;;
6519;SDS011;3293;51.690;5.982;2022-08-07T08:21:16;3.97;;;3.50;;
6519;SDS011;3293;51.690;5.982;2022-08-07T08:26:35;5.00;;;3.10;;
6519;SDS011;3293;51.690;5.982;2022-08-07T08:31:54;4.20;;;3.20;;
6519;SDS011;3293;51.690;5.982;2022-08-07T08:36:55;3.55;;;2.17;;
6519;SDS011;3293;51.690;5.982;2022-08-07T08:41:58;3.75;;;2.78;;
6519;SDS011;3293;51.690;5.982;2022-08-07T08:47:06;3.63;;;2.08;;
6519;SDS011;3293;51.690;5.982;2022-08-07T08:52:23;3.20;;;2.58;;
6519;SDS011;3293;51.690;5.982;2022-08-07T08:58:13;4.43;;;2.28;;
6519;SDS011;3293;51.690;5.982;2022-08-07T09:03:07;5.28;;;2.10;;
6519;SDS011;3293;51.690;5.982;2022-08-07T09:24:19;2.53;;;1.70;;
6519;SDS011;3293;51.690;5.982;2022-08-07T09:40:20;2.30;;;1.60;;
6519;SDS011;3293;51.690;5.982;2022-08-07T09:45:41;2.40;;;1.90;;
6519;SDS011;3293;51.690;5.982;2022-08-07T10:01:35;3.00;;;2.17;;
6519;SDS011;3293;51.690;5.982;2022-08-07T10:12:29;2.40;;;2.20;;
6519;SDS011;3293;51.690;5.982;2022-08-07T10:45:05;4.45;;;2.30;;
6519;SDS011;3293;51.690;5.982;2022-08-07T10:55:52;3.47;;;2.13;;
6519;SDS011;3293;51.690;5.982;2022-08-07T11:06:24;2.50;;;2.08;;
6519;SDS011;3293;51.690;5.982;2022-08-07T11:16:51;3.42;;;3.13;;
6519;SDS011;3293;51.690;5.982;2022-08-07T11:22:01;3.55;;;3.08;;
6519;SDS011;3293;51.690;5.982;2022-08-07T11:27:08;4.20;;;3.15;;
6519;SDS011;3293;51.690;5.982;2022-08-07T11:37:58;3.20;;;2.90;;
6519;SDS011;3293;51.690;5.982;2022-08-07T11:43:20;3.70;;;2.80;;
6519;SDS011;3293;51.690;5.982;2022-08-07T11:53:49;4.53;;;2.50;;
6519;SDS011;3293;51.690;5.982;2022-08-07T12:09:47;6.20;;;2.80;;
6519;SDS011;3293;51.690;5.982;2022-08-07T12:25:33;6.95;;;2.47;;
6519;SDS011;3293;51.690;5.982;2022-08-07T12:30:52;3.00;;;2.40;;
6519;SDS011;3293;51.690;5.982;2022-08-07T12:35:54;3.50;;;2.35;;
6519;SDS011;3293;51.690;5.982;2022-08-07T12:40:55;3.85;;;2.25;;
6519;SDS011;3293;51.690;5.982;2022-08-07T12:46:05;3.38;;;2.30;;
6519;SDS011;3293;51.690;5.982;2022-08-07T12:51:15;4.13;;;2.53;;
6519;SDS011;3293;51.690;5.982;2022-08-07T12:56:21;3.30;;;1.80;;
6519;SDS011;3293;51.690;5.982;2022-08-07T13:07:16;3.63;;;2.08;;
6519;SDS011;3293;51.690;5.982;2022-08-07T13:12:55;3.08;;;2.25;;
6519;SDS011;3293;51.690;5.982;2022-08-07T13:18:20;2.30;;;1.90;;
6519;SDS011;3293;51.690;5.982;2022-08-07T13:23:30;2.35;;;1.98;;
6519;SDS011;3293;51.690;5.982;2022-08-07T13:28:37;2.53;;;2.10;;
6519;SDS011;3293;51.690;5.982;2022-08-07T13:33:47;2.97;;;2.45;;
6519;SDS011;3293;51.690;5.982;2022-08-07T13:38:56;3.20;;;2.53;;
6519;SDS011;3293;51.690;5.982;2022-08-07T13:44:06;3.38;;;2.53;;
6519;SDS011;3293;51.690;5.982;2022-08-07T13:49:09;2.08;;;1.98;;
6519;SDS011;3293;51.690;5.982;2022-08-07T13:54:12;3.97;;;2.22;;
6519;SDS011;3293;51.690;5.982;2022-08-07T13:59:23;3.97;;;2.20;;
6519;SDS011;3293;51.690;5.982;2022-08-07T14:04:25;2.88;;;2.10;;
6519;SDS011;3293;51.690;5.982;2022-08-07T14:09:27;2.25;;;1.80;;
6519;SDS011;3293;51.690;5.982;2022-08-07T14:14:31;3.28;;;2.22;;
6519;SDS011;3293;51.690;5.982;2022-08-07T14:20:43;5.68;;;2.67;;
6519;SDS011;3293;51.690;5.982;2022-08-07T14:25:14;4.22;;;2.45;;
6519;SDS011;3293;51.690;5.982;2022-08-07T14:30:15;2.85;;;2.22;;
6519;SDS011;3293;51.690;5.982;2022-08-07T14:35:20;2.28;;;2.08;;
6519;SDS011;3293;51.690;5.982;2022-08-07T14:40:23;5.38;;;2.30;;
6519;SDS011;3293;51.690;5.982;2022-08-07T14:50:46;4.13;;;2.30;;
6519;SDS011;3293;51.690;5.982;2022-08-07T14:55:49;2.42;;;2.17;;
6519;SDS011;3293;51.690;5.982;2022-08-07T15:00:50;2.75;;;2.00;;
6519;SDS011;3293;51.690;5.982;2022-08-07T15:05:52;4.53;;;2.47;;
6519;SDS011;3293;51.690;5.982;2022-08-07T15:10:55;2.92;;;2.28;;
6519;SDS011;3293;51.690;5.982;2022-08-07T15:15:57;2.17;;;1.98;;
6519;SDS011;3293;51.690;5.982;2022-08-07T15:21:24;3.20;;;2.08;;
6519;SDS011;3293;51.690;5.982;2022-08-07T15:26:32;2.92;;;2.33;;
6519;SDS011;3293;51.690;5.982;2022-08-07T15:31:36;3.45;;;3.05;;
6519;SDS011;3293;51.690;5.982;2022-08-07T15:36:38;4.05;;;2.47;;
6519;SDS011;3293;51.690;5.982;2022-08-07T15:41:55;2.97;;;2.33;;
6519;SDS011;3293;51.690;5.982;2022-08-07T15:47:01;2.65;;;2.42;;
6519;SDS011;3293;51.690;5.982;2022-08-07T15:52:04;3.22;;;2.72;;
6519;SDS011;3293;51.690;5.982;2022-08-07T15:57:07;4.53;;;2.63;;
6519;SDS011;3293;51.690;5.982;2022-08-07T16:02:21;3.25;;;2.95;;
6519;SDS011;3293;51.690;5.982;2022-08-07T16:07:25;3.72;;;3.00;;
6519;SDS011;3293;51.690;5.982;2022-08-07T16:12:37;3.50;;;3.20;;
6519;SDS011;3293;51.690;5.982;2022-08-07T16:23:13;4.80;;;3.03;;
6519;SDS011;3293;51.690;5.982;2022-08-07T16:34:11;3.00;;;2.80;;
6519;SDS011;3293;51.690;5.982;2022-08-07T16:55:31;2.53;;;2.33;;
6519;SDS011;3293;51.690;5.982;2022-08-07T17:11:39;2.95;;;2.65;;
6519;SDS011;3293;51.690;5.982;2022-08-07T17:16:50;3.30;;;3.00;;
6519;SDS011;3293;51.690;5.982;2022-08-07T17:22:04;3.33;;;3.03;;
6519;SDS011;3293;51.690;5.982;2022-08-07T17:27:28;5.32;;;2.70;;
6519;SDS011;3293;51.690;5.982;2022-08-07T17:32:42;3.08;;;2.33;;
6519;SDS011;3293;51.690;5.982;2022-08-07T17:38:01;2.88;;;2.58;;
6519;SDS011;3293;51.690;5.982;2022-08-07T17:43:48;2.47;;;2.22;;
6519;SDS011;3293;51.690;5.982;2022-08-07T17:54:21;2.17;;;1.98;;
6519;SDS011;3293;51.690;5.982;2022-08-07T17:59:26;3.13;;;2.33;;
6519;SDS011;3293;51.690;5.982;2022-08-07T18:15:21;4.75;;;2.40;;
6519;SDS011;3293;51.690;5.982;2022-08-07T18:20:26;3.70;;;2.60;;
6519;SDS011;3293;51.690;5.982;2022-08-07T18:25:32;2.78;;;2.17;;
6519;SDS011;3293;51.690;5.982;2022-08-07T18:30:51;2.88;;;2.40;;
6519;SDS011;3293;51.690;5.982;2022-08-07T18:46:46;5.13;;;2.05;;
6519;SDS011;3293;51.690;5.982;2022-08-07T18:57:41;2.95;;;1.85;;
6519;SDS011;3293;51.690;5.982;2022-08-07T19:02:53;3.78;;;2.50;;
6519;SDS011;3293;51.690;5.982;2022-08-07T19:08:18;2.15;;;1.98;;
6519;SDS011;3293;51.690;5.982;2022-08-07T19:13:32;3.80;;;2.00;;
6519;SDS011;3293;51.690;5.982;2022-08-07T19:24:00;2.38;;;2.17;;
6519;SDS011;3293;51.690;5.982;2022-08-07T19:29:08;3.92;;;2.20;;
6519;SDS011;3293;51.690;5.982;2022-08-07T19:34:11;2.58;;;2.00;;
6519;SDS011;3293;51.690;5.982;2022-08-07T19:39:13;2.85;;;2.20;;
6519;SDS011;3293;51.690;5.982;2022-08-07T19:44:22;2.58;;;2.38;;
6519;SDS011;3293;51.690;5.982;2022-08-07T19:49:25;2.33;;;2.13;;
6519;SDS011;3293;51.690;5.982;2022-08-07T19:54:26;5.40;;;2.40;;
6519;SDS011;3293;51.690;5.982;2022-08-07T19:59:27;2.53;;;2.28;;
6519;SDS011;3293;51.690;5.982;2022-08-07T20:04:39;2.47;;;2.28;;
6519;SDS011;3293;51.690;5.982;2022-08-07T20:09:45;2.70;;;2.15;;
6519;SDS011;3293;51.690;5.982;2022-08-07T20:14:49;2.85;;;2.45;;
6519;SDS011;3293;51.690;5.982;2022-08-07T20:19:50;3.78;;;2.65;;
6519;SDS011;3293;51.690;5.982;2022-08-07T20:24:53;3.28;;;2.55;;
6519;SDS011;3293;51.690;5.982;2022-08-07T20:29:58;3.17;;;2.60;;
6519;SDS011;3293;51.690;5.982;2022-08-07T20:35:02;5.22;;;2.90;;
6519;SDS011;3293;51.690;5.982;2022-08-07T20:40:05;3.70;;;3.08;;
6519;SDS011;3293;51.690;5.982;2022-08-07T20:45:07;3.40;;;2.90;;
6519;SDS011;3293;51.690;5.982;2022-08-07T20:50:08;4.13;;;3.20;;
6519;SDS011;3293;51.690;5.982;2022-08-07T20:55:10;5.35;;;2.78;;
6519;SDS011;3293;51.690;5.982;2022-08-07T21:00:10;3.67;;;3.00;;
6519;SDS011;3293;51.690;5.982;2022-08-07T21:05:12;3.42;;;3.13;;
6519;SDS011;3293;51.690;5.982;2022-08-07T21:10:17;4.55;;;3.20;;
6519;SDS011;3293;51.690;5.982;2022-08-07T21:15:22;4.28;;;3.22;;
6519;SDS011;3293;51.690;5.982;2022-08-07T21:20:24;4.13;;;3.17;;
6519;SDS011;3293;51.690;5.982;2022-08-07T21:25:25;3.60;;;3.30;;
6519;SDS011;3293;51.690;5.982;2022-08-07T21:35:49;3.55;;;3.25;;
6519;SDS011;3293;51.690;5.982;2022-08-07T21:41:04;5.45;;;3.60;;
6519;SDS011;3293;51.690;5.982;2022-08-07T21:51:33;5.55;;;3.47;;
6519;SDS011;3293;51.690;5.982;2022-08-07T21:56:49;4.05;;;3.30;;
6519;SDS011;3293;51.690;5.982;2022-08-07T22:01:57;3.95;;;3.60;;
6519;SDS011;3293;51.690;5.982;2022-08-07T22:07:04;5.22;;;3.70;;
6519;SDS011;3293;51.690;5.982;2022-08-07T22:12:14;5.13;;;3.88;;
6519;SDS011;3293;51.690;5.982;2022-08-07T22:17:18;5.00;;;4.32;;
6519;SDS011;3293;51.690;5.982;2022-08-07T22:22:22;4.20;;;3.80;;
6519;SDS011;3293;51.690;5.982;2022-08-07T22:33:06;7.05;;;4.32;;
6519;SDS011;3293;51.690;5.982;2022-08-07T22:38:15;4.60;;;4.13;;
6519;SDS011;3293;51.690;5.982;2022-08-07T22:43:50;7.03;;;4.87;;
6519;SDS011;3293;51.690;5.982;2022-08-07T23:00:11;6.13;;;4.70;;
6519;SDS011;3293;51.690;5.982;2022-08-07T23:10:58;6.43;;;4.80;;
6519;SDS011;3293;51.690;5.982;2022-08-07T23:21:38;6.77;;;5.37;;
6519;SDS011;3293;51.690;5.982;2022-08-07T23:26:57;6.93;;;5.63;;
6519;SDS011;3293;51.690;5.982;2022-08-07T23:37:33;6.23;;;5.63;;
6519;SDS011;3293;51.690;5.982;2022-08-07T23:43:15;7.10;;;5.80;;
6519;SDS011;3293;51.690;5.982;2022-08-07T23:54:19;7.37;;;5.70;;
